Time;durP1;ratioP1;P1;durP2;ratioP2;P2;SDS_P1;SDS_P2;PMS_P1;PMS_P2;Temp;Humidity;BMP_temperature;BMP_pressure;BME280_temperature;BME280_humidity;BME280_pressure;Samples;Min_cycle;Max_cycle;Signal;HPM_P1;HPM_P2
2021/08/06 00:00:55;;;;;;;4.23;3.93;;;;;;;16.53;78.72;100728.56;3573076;40;20223;-80
2021/08/06 00:03:20;;;;;;;4.77;4.33;;;;;;;16.51;78.58;100725.16;3573428;40;20622;-80
2021/08/06 00:05:46;;;;;;;4.90;4.40;;;;;;;16.55;77.99;100719.09;3574939;40;20223;-81
2021/08/06 00:08:12;;;;;;;6.93;3.80;;;;;;;16.37;78.18;100720.91;3575922;40;20219;-81
2021/08/06 00:10:37;;;;;;;5.40;4.27;;;;;;;16.27;78.26;100719.25;3574419;40;20281;-80
2021/08/06 00:13:02;;;;;;;3.87;3.57;;;;;;;16.17;78.45;100725.31;3574342;40;20225;-81
2021/08/06 00:15:28;;;;;;;4.37;4.03;;;;;;;16.07;79.17;100715.91;3575817;40;20284;-81
2021/08/06 00:17:53;;;;;;;3.93;3.43;;;;;;;16.02;79.14;100720.25;3575832;40;20500;-81
2021/08/06 00:20:18;;;;;;;5.30;3.73;;;;;;;16.03;79.07;100724.53;3575403;40;20246;-81
2021/08/06 00:22:43;;;;;;;7.57;3.70;;;;;;;16.01;78.63;100723.66;3575028;40;20238;-83
2021/08/06 00:25:09;;;;;;;4.43;3.43;;;;;;;15.93;79.18;100717.69;3575405;40;20222;-80
2021/08/06 00:27:35;;;;;;;6.77;5.00;;;;;;;15.86;79.26;100722.03;3575725;40;20636;-81
2021/08/06 00:30:00;;;;;;;6.33;3.90;;;;;;;15.83;79.13;100713.41;3574537;40;20322;-82
2021/08/06 00:32:25;;;;;;;5.70;4.80;;;;;;;15.80;79.33;100710.88;3575305;40;20231;-81
2021/08/06 00:34:51;;;;;;;9.80;4.23;;;;;;;15.79;79.33;100706.56;3576591;40;20219;-81
2021/08/06 00:37:16;;;;;;;5.00;4.60;;;;;;;15.72;79.50;100703.16;3576163;40;20226;-81
2021/08/06 00:39:41;;;;;;;5.60;4.30;;;;;;;15.70;79.17;100710.03;3574102;40;20249;-81
2021/08/06 00:42:06;;;;;;;4.23;3.30;;;;;;;15.69;79.08;100712.59;3575265;40;20219;-81
2021/08/06 00:44:32;;;;;;;5.53;4.97;;;;;;;15.65;79.12;100710.94;3575577;40;20311;-81
2021/08/06 00:46:57;;;;;;;4.97;4.40;;;;;;;15.65;79.20;100708.34;3575362;40;20282;-81
2021/08/06 00:49:22;;;;;;;4.23;3.83;;;;;;;15.67;79.29;100696.28;3573394;40;20588;-80
2021/08/06 00:51:48;;;;;;;5.47;3.83;;;;;;;15.65;78.96;100703.19;3575159;40;20560;-81
2021/08/06 00:54:15;;;;;;;5.67;5.13;;;;;;;15.63;79.45;100692.84;3574938;40;20234;-82
2021/08/06 00:56:41;;;;;;;6.13;5.07;;;;;;;15.61;79.63;100694.56;3574846;40;20640;-81
2021/08/06 00:59:06;;;;;;;7.87;5.57;;;;;;;15.59;79.64;100693.72;3575116;40;20290;-82
2021/08/06 01:01:35;;;;;;;6.00;4.80;;;;;;;15.59;79.49;100692.84;3576805;40;20613;-82
2021/08/06 01:04:13;;;;;;;5.80;5.30;;;;;;;15.57;79.64;100686.84;3584491;40;20223;-81
2021/08/06 01:06:56;;;;;;;6.13;4.90;;;;;;;15.59;79.38;100692.84;3583979;40;20308;-82
2021/08/06 01:09:41;;;;;;;7.50;5.80;;;;;;;15.62;79.92;100685.09;3582961;40;20237;-81
2021/08/06 01:12:11;;;;;;;7.33;5.80;;;;;;;15.67;79.81;100685.94;3574402;40;20605;-80
2021/08/06 01:14:41;;;;;;;5.33;4.90;;;;;;;15.70;80.44;100673.88;3574543;40;20255;-81
2021/08/06 01:17:07;;;;;;;6.23;5.63;;;;;;;15.83;79.73;100677.25;3574379;40;20242;-81
2021/08/06 01:19:47;;;;;;;9.47;5.73;;;;;;;15.92;79.97;100680.66;3575275;40;20238;-81
2021/08/06 01:22:20;;;;;;;6.33;5.73;;;;;;;15.86;80.40;100682.41;3575572;40;20238;-81
2021/08/06 01:24:55;;;;;;;5.97;4.90;;;;;;;15.88;80.50;100680.72;3574394;40;20274;-80
2021/08/06 01:27:23;;;;;;;8.27;5.67;;;;;;;15.96;80.36;100673.75;3573254;40;20237;-80
2021/08/06 01:29:48;;;;;;;6.57;5.90;;;;;;;15.95;80.17;100680.66;3572991;40;20231;-80
2021/08/06 01:32:14;;;;;;;6.37;5.77;;;;;;;15.93;80.55;100687.53;3571841;40;20572;-80
2021/08/06 01:34:39;;;;;;;6.17;5.33;;;;;;;15.91;80.43;100691.00;3574497;40;20233;-81
2021/08/06 01:37:04;;;;;;;7.37;5.77;;;;;;;15.94;80.33;100688.41;3573774;40;20218;-81
2021/08/06 01:39:30;;;;;;;4.90;4.50;;;;;;;15.89;80.73;100697.91;3574061;40;20340;-80
2021/08/06 01:42:20;;;;;;;6.03;5.43;;;;;;;15.86;80.42;100690.16;3574436;40;20278;-80
2021/08/06 01:44:52;;;;;;;6.10;5.60;;;;;;;15.81;80.62;100685.03;3574558;40;20235;-80
2021/08/06 01:47:21;;;;;;;5.50;4.93;;;;;;;15.82;80.30;100685.88;3576124;40;20276;-80
2021/08/06 01:49:51;;;;;;;6.17;5.33;;;;;;;15.75;80.36;100689.38;3574868;40;20259;-81
2021/08/06 01:52:22;;;;;;;6.30;5.67;;;;;;;15.69;81.03;100679.91;3575554;40;20233;-82
2021/08/06 01:54:50;;;;;;;7.07;5.10;;;;;;;15.67;80.18;100686.81;3572742;40;20282;-81
2021/08/06 01:57:15;;;;;;;6.27;5.20;;;;;;;15.66;80.41;100686.81;3563851;40;20263;-81
2021/08/06 01:59:43;;;;;;;7.67;6.60;;;;;;;15.65;81.05;100685.94;3564560;40;20262;-80
2021/08/06 02:02:10;;;;;;;5.90;5.40;;;;;;;15.66;80.59;100682.50;3569608;40;20313;-81
2021/08/06 02:04:36;;;;;;;9.50;6.50;;;;;;;15.64;81.10;100689.41;3573714;40;20223;-79
2021/08/06 02:07:01;;;;;;;5.90;5.40;;;;;;;15.66;80.74;100690.25;3575395;40;20701;-81
2021/08/06 02:09:27;;;;;;;6.57;5.97;;;;;;;15.71;80.99;100685.06;3573839;40;20254;-81
2021/08/06 02:11:53;;;;;;;7.73;6.67;;;;;;;15.71;81.01;100685.06;3582213;40;20226;-81
2021/08/06 02:14:20;;;;;;;4.37;4.03;;;;;;;15.78;80.67;100686.75;3574669;40;20613;-81
2021/08/06 02:16:47;;;;;;;6.17;5.60;;;;;;;15.76;80.80;100686.78;3573969;40;20227;-80
2021/08/06 02:19:14;;;;;;;6.77;6.07;;;;;;;15.75;81.02;100682.47;3573932;40;20557;-80
2021/08/06 02:21:42;;;;;;;7.47;6.77;;;;;;;15.75;81.30;100685.03;3574492;40;20274;-81
2021/08/06 02:24:10;;;;;;;7.33;6.43;;;;;;;15.75;80.85;100674.72;3575071;40;20234;-80
2021/08/06 02:26:39;;;;;;;6.17;5.57;;;;;;;15.80;80.88;100672.97;3574773;40;20269;-80
2021/08/06 02:29:09;;;;;;;8.87;7.50;;;;;;;15.80;81.22;100672.13;3574551;40;20254;-81
2021/08/06 02:31:35;;;;;;;8.50;6.77;;;;;;;16.14;80.78;100678.81;3574193;40;20234;-81
2021/08/06 02:34:00;;;;;;;7.53;6.73;;;;;;;16.02;80.53;100673.75;3574776;40;20231;-80
2021/08/06 02:36:26;;;;;;;6.63;5.97;;;;;;;16.09;80.25;100671.13;3573427;40;20229;-81
2021/08/06 02:38:56;;;;;;;7.70;7.00;;;;;;;16.00;80.43;100685.78;3574861;40;20250;-81
2021/08/06 02:41:22;;;;;;;5.83;5.33;;;;;;;16.02;80.66;100681.50;3574361;40;20234;-81
2021/08/06 02:43:47;;;;;;;7.17;6.47;;;;;;;16.08;80.83;100684.03;3574387;40;20292;-81
2021/08/06 02:46:15;;;;;;;6.17;5.67;;;;;;;16.08;80.37;100676.28;3574297;40;20234;-81
2021/08/06 02:48:40;;;;;;;7.20;6.60;;;;;;;16.34;79.79;100669.25;3573781;40;20227;-79
2021/08/06 02:51:05;;;;;;;6.63;6.03;;;;;;;16.12;80.22;100671.06;3572963;40;20231;-80
2021/08/06 02:53:31;;;;;;;7.27;6.57;;;;;;;16.09;80.84;100672.81;3574669;40;20290;-81
2021/08/06 02:55:56;;;;;;;6.17;5.57;;;;;;;15.98;80.42;100670.28;3575215;40;20730;-82
2021/08/06 02:58:21;;;;;;;6.30;5.80;;;;;;;15.91;80.59;100670.34;3574945;40;20234;-81
2021/08/06 03:00:48;;;;;;;6.23;5.63;;;;;;;15.89;81.06;100672.09;3575015;40;20305;-81
2021/08/06 03:03:13;;;;;;;9.07;6.60;;;;;;;16.15;80.15;100663.31;3574216;40;20222;-82
2021/08/06 03:05:38;;;;;;;5.73;5.23;;;;;;;16.09;80.16;100659.91;3574371;40;20239;-79
2021/08/06 03:08:04;;;;;;;7.27;5.87;;;;;;;16.08;80.02;100653.03;3573898;40;20251;-79
2021/08/06 03:10:29;;;;;;;7.30;6.13;;;;;;;15.90;79.76;100651.44;3574294;40;20246;-80
2021/08/06 03:12:55;;;;;;;6.83;5.70;;;;;;;15.78;80.48;100643.72;3573717;40;20238;-80
2021/08/06 03:15:20;;;;;;;5.93;5.43;;;;;;;15.81;80.54;100641.13;3573959;40;20300;-80
2021/08/06 03:17:46;;;;;;;5.70;5.20;;;;;;;15.83;80.13;100651.44;3574212;40;20234;-79
2021/08/06 03:20:13;;;;;;;7.50;6.90;;;;;;;15.72;79.81;100645.47;3574062;40;20274;-80
2021/08/06 03:22:40;;;;;;;6.37;5.77;;;;;;;15.61;80.28;100650.69;3576231;40;20231;-81
2021/08/06 03:25:07;;;;;;;7.67;6.40;;;;;;;15.51;80.59;100650.75;3572330;40;20242;-80
2021/08/06 03:27:32;;;;;;;7.00;6.30;;;;;;;15.52;80.47;100652.47;3573761;40;20238;-81
2021/08/06 03:29:57;;;;;;;7.57;6.20;;;;;;;15.55;79.83;100650.72;3573778;40;20254;-79
2021/08/06 03:32:23;;;;;;;8.77;6.80;;;;;;;15.47;80.53;100649.03;3574095;40;20241;-80
2021/08/06 03:34:48;;;;;;;7.40;6.70;;;;;;;15.46;80.31;100645.59;3573662;40;20273;-80
2021/08/06 03:37:13;;;;;;;7.07;6.37;;;;;;;15.42;80.95;100646.44;3572225;40;20231;-79
2021/08/06 03:39:39;;;;;;;6.20;5.60;;;;;;;15.44;80.49;100649.03;3574659;40;20609;-80
2021/08/06 03:42:04;;;;;;;8.60;7.70;;;;;;;15.58;80.17;100644.69;3574373;40;20514;-81
2021/08/06 03:44:29;;;;;;;7.77;6.97;;;;;;;15.43;80.00;100645.59;3575298;40;20289;-81
2021/08/06 03:46:54;;;;;;;5.70;5.10;;;;;;;15.42;80.26;100643.88;3576026;40;20331;-81
2021/08/06 03:49:20;;;;;;;7.63;6.90;;;;;;;15.40;80.37;100640.44;3574469;40;20230;-79
2021/08/06 03:51:45;;;;;;;7.03;6.07;;;;;;;15.34;79.92;100640.44;3572803;40;20995;-81
2021/08/06 03:54:10;;;;;;;7.37;6.60;;;;;;;15.37;80.25;100632.72;3570176;40;20222;-82
2021/08/06 03:56:35;;;;;;;7.70;6.73;;;;;;;15.34;80.40;100630.13;3577303;40;20289;-82
2021/08/06 03:59:01;;;;;;;6.00;5.50;;;;;;;15.29;80.23;100625.84;3586120;40;20238;-82
2021/08/06 04:01:26;;;;;;;6.83;6.33;;;;;;;15.29;80.49;100634.41;3579106;40;20304;-81
2021/08/06 04:03:51;;;;;;;8.53;7.70;;;;;;;15.36;80.04;100630.13;3579136;40;20589;-81
2021/08/06 04:06:16;;;;;;;7.50;6.73;;;;;;;15.30;79.90;100620.69;3579006;40;20222;-81
2021/08/06 04:08:42;;;;;;;7.03;6.43;;;;;;;15.27;79.98;100627.53;3570106;40;20223;-82
2021/08/06 04:11:07;;;;;;;5.47;5.00;;;;;;;15.27;80.43;100623.25;3569229;40;20231;-80
2021/08/06 04:13:32;;;;;;;8.10;7.40;;;;;;;15.39;80.23;100622.38;3569253;40;20251;-82
2021/08/06 04:15:58;;;;;;;7.47;6.87;;;;;;;15.31;80.15;100619.81;3568922;40;20255;-81
2021/08/06 04:18:23;;;;;;;6.97;6.30;;;;;;;15.29;80.15;100620.69;3569266;40;20255;-81
2021/08/06 04:20:48;;;;;;;7.87;7.17;;;;;;;15.38;80.02;100623.25;3568619;40;20502;-82
2021/08/06 04:23:13;;;;;;;7.87;7.17;;;;;;;15.33;79.96;100620.66;3569285;40;20676;-80
2021/08/06 04:25:39;;;;;;;8.77;7.90;;;;;;;15.31;79.92;100619.81;3568448;40;20235;-81
2021/08/06 04:28:05;;;;;;;7.97;7.27;;;;;;;15.33;80.16;100622.38;3568039;40;20704;-81
2021/08/06 04:30:30;;;;;;;6.70;6.10;;;;;;;15.33;80.36;100617.22;3567437;40;20247;-79
2021/08/06 04:32:56;;;;;;;7.13;6.50;;;;;;;15.39;79.79;100614.66;3569179;40;20242;-80
2021/08/06 04:35:21;;;;;;;8.17;6.83;;;;;;;15.56;79.77;100608.53;3574070;40;20241;-80
2021/08/06 04:37:52;;;;;;;7.10;6.43;;;;;;;15.47;79.35;100615.50;3575899;40;20226;-80
2021/08/06 04:40:18;;;;;;;6.87;6.27;;;;;;;15.45;79.95;100617.19;3576810;40;20250;-81
2021/08/06 04:42:43;;;;;;;6.93;6.33;;;;;;;15.65;80.04;100618.00;3577220;40;20702;-80
2021/08/06 04:45:10;;;;;;;8.87;7.97;;;;;;;15.73;78.62;100608.47;3571807;40;20219;-81
2021/08/06 04:47:35;;;;;;;6.67;6.07;;;;;;;15.63;79.23;100605.09;3568438;40;20588;-80
2021/08/06 04:50:01;;;;;;;8.00;7.20;;;;;;;15.78;79.25;100610.16;3567968;40;20239;-80
2021/08/06 04:52:26;;;;;;;8.23;7.43;;;;;;;15.90;78.69;100612.69;3566815;40;20234;-80
2021/08/06 04:54:51;;;;;;;6.63;6.03;;;;;;;15.93;79.09;100606.63;3567944;40;20773;-81
2021/08/06 04:57:17;;;;;;;7.47;6.77;;;;;;;15.81;78.88;100601.53;3568658;40;20577;-82
2021/08/06 04:59:42;;;;;;;7.77;6.53;;;;;;;15.84;79.30;100598.94;3568430;40;20250;-81
2021/08/06 05:02:07;;;;;;;7.20;6.50;;;;;;;15.94;79.31;100598.03;3567506;40;20294;-83
2021/08/06 05:04:32;;;;;;;6.90;6.17;;;;;;;16.03;78.68;100580.72;3568550;40;20228;-82
2021/08/06 05:06:58;;;;;;;8.30;7.50;;;;;;;16.11;78.31;100589.28;3575744;40;20239;-81
2021/08/06 05:09:23;;;;;;;8.50;7.70;;;;;;;16.41;78.05;100589.09;3567943;40;20235;-81
2021/08/06 05:11:48;;;;;;;7.23;6.63;;;;;;;16.18;78.18;100583.22;3568249;40;20234;-81
2021/08/06 05:14:14;;;;;;;7.10;6.50;;;;;;;16.38;77.21;100585.63;3567530;40;20227;-82
2021/08/06 05:16:39;;;;;;;7.43;6.83;;;;;;;16.50;77.67;100585.56;3567671;40;20239;-82
2021/08/06 05:19:04;;;;;;;6.50;5.90;;;;;;;16.40;77.67;100587.34;3576580;40;20365;-83
2021/08/06 05:21:29;;;;;;;6.80;6.20;;;;;;;16.56;77.11;100582.91;3568041;40;20237;-82
2021/08/06 05:23:55;;;;;;;7.57;6.97;;;;;;;16.58;76.46;100579.44;3568095;40;20226;-82
2021/08/06 05:26:20;;;;;;;7.40;6.80;;;;;;;16.87;76.38;100577.44;3567971;40;20621;-82
2021/08/06 05:28:45;;;;;;;6.53;6.00;;;;;;;16.76;76.75;100581.00;3568055;40;20625;-82
2021/08/06 05:31:11;;;;;;;7.47;6.77;;;;;;;16.74;76.07;100573.28;3568107;40;20271;-82
2021/08/06 05:33:36;;;;;;;7.73;7.03;;;;;;;16.78;76.44;100572.38;3567901;40;20297;-82
2021/08/06 05:36:01;;;;;;;6.87;6.27;;;;;;;16.95;75.75;100565.25;3568555;40;20234;-82
2021/08/06 05:38:27;;;;;;;7.27;6.67;;;;;;;17.25;74.56;100566.66;3568230;40;20231;-82
2021/08/06 05:40:52;;;;;;;6.70;6.10;;;;;;;17.13;74.55;100566.81;3568572;40;20565;-82
2021/08/06 05:43:17;;;;;;;6.83;6.10;;;;;;;17.37;74.72;100563.91;3569503;40;20223;-83
2021/08/06 05:45:43;;;;;;;6.80;6.20;;;;;;;17.55;73.93;100579.25;3578489;40;20242;-82
2021/08/06 05:48:09;;;;;;;6.10;5.60;;;;;;;17.42;73.85;100572.53;3585919;40;20532;-83
2021/08/06 05:50:40;;;;;;;7.33;6.03;;;;;;;17.32;74.69;100570.88;3577561;40;20239;-81
2021/08/06 05:53:05;;;;;;;7.33;6.47;;;;;;;17.21;75.66;100571.00;3585577;40;20222;-83
2021/08/06 05:55:30;;;;;;;6.37;5.83;;;;;;;17.17;75.00;100571.09;3586201;40;20300;-83
2021/08/06 05:57:55;;;;;;;6.60;5.97;;;;;;;17.47;74.06;100570.72;3586580;40;20226;-82
2021/08/06 06:00:21;;;;;;;6.97;6.33;;;;;;;17.53;73.70;100568.91;3577910;40;20263;-82
2021/08/06 06:02:46;;;;;;;5.93;5.43;;;;;;;17.50;74.51;100568.09;3586438;40;20231;-82
2021/08/06 06:05:11;;;;;;;6.57;6.03;;;;;;;17.53;75.29;100563.72;3578398;40;20235;-84
2021/08/06 06:07:48;;;;;;;5.50;5.00;;;;;;;17.68;74.36;100560.09;3578079;40;20516;-82
2021/08/06 06:10:18;;;;;;;6.40;5.73;;;;;;;17.99;72.66;100557.03;3578601;40;20273;-83
2021/08/06 06:12:43;;;;;;;6.00;5.40;;;;;;;18.03;73.21;100560.41;3579464;40;20508;-83
2021/08/06 06:15:09;;;;;;;5.37;4.97;;;;;;;18.17;71.90;100566.22;3578684;40;20300;-82
2021/08/06 06:17:35;;;;;;;6.43;5.93;;;;;;;18.27;72.05;100560.88;3578880;40;20225;-83
2021/08/06 06:20:00;;;;;;;5.70;5.20;;;;;;;18.20;73.02;100555.81;3579023;40;20258;-83
2021/08/06 06:22:25;;;;;;;5.57;5.07;;;;;;;18.22;72.67;100557.50;3579523;40;20213;-82
2021/08/06 06:24:50;;;;;;;5.33;4.83;;;;;;;18.32;72.17;100561.66;3578742;40;20230;-82
2021/08/06 06:27:16;;;;;;;5.57;5.03;;;;;;;18.86;69.29;100560.72;3579664;40;20230;-83
2021/08/06 06:29:41;;;;;;;6.03;4.80;;;;;;;18.77;69.12;100558.31;3587147;40;20241;-83
2021/08/06 06:32:07;;;;;;;5.67;5.13;;;;;;;18.71;70.42;100557.56;3587229;40;20234;-83
2021/08/06 06:34:33;;;;;;;6.43;5.30;;;;;;;18.94;69.70;100558.00;3578550;40;20226;-82
2021/08/06 06:36:58;;;;;;;5.23;4.83;;;;;;;18.89;70.31;100565.00;3578722;40;20231;-82
2021/08/06 06:39:23;;;;;;;5.17;4.77;;;;;;;19.04;69.00;100562.13;3578190;40;20250;-82
2021/08/06 06:41:49;;;;;;;5.37;4.77;;;;;;;18.92;69.33;100558.00;3586881;40;20285;-82
2021/08/06 06:44:14;;;;;;;4.87;4.40;;;;;;;19.24;68.51;100545.28;3574376;40;20511;-81
2021/08/06 06:46:39;;;;;;;5.43;5.03;;;;;;;19.10;69.66;100544.69;3568070;40;20227;-81
2021/08/06 06:49:04;;;;;;;5.43;5.00;;;;;;;19.05;70.48;100546.50;3568970;40;20255;-82
2021/08/06 06:51:30;;;;;;;5.47;4.97;;;;;;;19.50;68.32;100549.94;3568722;40;20228;-83
2021/08/06 06:53:55;;;;;;;5.80;4.93;;;;;;;19.59;67.42;100535.00;3568791;40;20218;-82
2021/08/06 06:56:20;;;;;;;5.30;4.83;;;;;;;19.77;66.09;100537.16;3568874;40;20230;-82
2021/08/06 06:58:45;;;;;;;5.23;4.83;;;;;;;19.83;67.29;100539.66;3567836;40;20243;-82
2021/08/06 07:01:11;;;;;;;6.00;4.50;;;;;;;20.04;66.14;100533.94;3568119;40;20226;-82
2021/08/06 07:03:36;;;;;;;4.53;4.13;;;;;;;20.00;66.99;100534.88;3567986;40;20317;-81
2021/08/06 07:06:01;;;;;;;5.30;4.80;;;;;;;20.03;66.71;100534.81;3566860;40;20228;-83
2021/08/06 07:08:28;;;;;;;4.60;4.20;;;;;;;20.13;66.56;100536.34;3566299;40;20855;-82
2021/08/06 07:10:53;;;;;;;4.93;4.53;;;;;;;20.33;65.22;100536.72;3566826;40;20254;-82
2021/08/06 07:13:18;;;;;;;4.77;4.27;;;;;;;20.31;65.98;100532.47;3565479;40;20231;-82
2021/08/06 07:15:44;;;;;;;4.87;4.37;;;;;;;20.22;66.88;100530.91;3567434;40;20263;-81
2021/08/06 07:18:11;;;;;;;4.20;3.90;;;;;;;20.54;64.62;100528.34;3564623;40;20222;-81
2021/08/06 07:20:37;;;;;;;4.20;3.83;;;;;;;20.54;66.52;100522.31;3565678;40;20247;-81
2021/08/06 07:23:02;;;;;;;4.40;4.10;;;;;;;20.77;65.52;100527.75;3565053;40;20298;-82
2021/08/06 07:25:27;;;;;;;4.70;4.30;;;;;;;20.71;66.24;100530.50;3565491;40;20215;-81
2021/08/06 07:27:54;;;;;;;4.50;4.10;;;;;;;21.01;63.76;100524.50;3570846;40;20237;-81
2021/08/06 07:30:19;;;;;;;4.43;3.77;;;;;;;21.01;63.00;100530.56;3570510;40;20254;-81
2021/08/06 07:32:45;;;;;;;4.10;3.60;;;;;;;21.25;61.79;100529.88;3568554;40;20514;-81
2021/08/06 07:35:11;;;;;;;3.60;3.30;;;;;;;21.22;63.34;100535.16;3564524;40;20223;-81
2021/08/06 07:37:37;;;;;;;4.33;4.03;;;;;;;21.56;61.82;100522.00;3574262;40;20512;-81
2021/08/06 07:40:03;;;;;;;3.70;3.40;;;;;;;21.54;61.60;100519.44;3574545;40;20252;-82
2021/08/06 07:42:29;;;;;;;3.30;3.00;;;;;;;21.48;62.12;100517.03;3574047;40;20263;-81
2021/08/06 07:44:54;;;;;;;3.10;2.83;;;;;;;21.74;60.89;100522.31;3573432;40;20309;-80
2021/08/06 07:47:20;;;;;;;3.57;3.27;;;;;;;21.93;59.39;100518.22;3572685;40;20229;-80
2021/08/06 07:49:45;;;;;;;3.37;3.07;;;;;;;21.92;58.58;100513.91;3571496;40;20262;-80
2021/08/06 07:52:12;;;;;;;3.20;3.00;;;;;;;21.81;59.90;100516.00;3573364;40;20245;-80
2021/08/06 07:54:39;;;;;;;3.23;3.03;;;;;;;21.88;59.30;100525.31;3573160;40;20222;-78
2021/08/06 07:57:05;;;;;;;3.20;2.90;;;;;;;22.10;58.83;100523.75;3573206;40;20219;-78
2021/08/06 07:59:30;;;;;;;2.73;2.53;;;;;;;22.11;60.06;100512.41;3572925;40;20256;-78
2021/08/06 08:01:55;;;;;;;3.33;3.10;;;;;;;22.46;59.10;100510.41;3564937;40;20234;-79
2021/08/06 08:04:21;;;;;;;3.07;2.60;;;;;;;22.62;58.90;100516.81;3571891;40;20233;-79
2021/08/06 08:06:47;;;;;;;3.30;3.00;;;;;;;22.83;56.87;100506.44;3572502;40;20236;-79
2021/08/06 08:09:12;;;;;;;3.00;2.70;;;;;;;23.05;55.23;100511.72;3572268;40;20230;-80
2021/08/06 08:11:37;;;;;;;2.97;2.77;;;;;;;22.96;56.42;100517.28;3572926;40;20234;-80
2021/08/06 08:14:03;;;;;;;2.87;2.67;;;;;;;23.04;55.10;100510.91;3572940;40;20557;-81
2021/08/06 08:16:28;;;;;;;4.77;3.20;;;;;;;22.96;55.70;100497.25;3573594;40;20219;-81
2021/08/06 08:18:53;;;;;;;3.17;2.87;;;;;;;23.19;54.32;100506.88;3573173;40;20821;-80
2021/08/06 08:21:19;;;;;;;2.67;2.47;;;;;;;23.17;54.14;100506.06;3573366;40;20227;-80
2021/08/06 08:23:44;;;;;;;2.83;2.60;;;;;;;23.32;54.07;100508.13;3573974;40;20234;-80
2021/08/06 08:26:09;;;;;;;3.20;3.00;;;;;;;23.45;52.84;100505.00;3574083;40;20238;-79
2021/08/06 08:28:35;;;;;;;9.07;3.30;;;;;;;23.34;53.57;100496.72;3582313;40;20234;-79
2021/08/06 08:31:00;;;;;;;2.97;2.77;;;;;;;23.29;52.98;100503.03;3575873;40;20238;-79
2021/08/06 08:33:26;;;;;;;2.90;2.70;;;;;;;23.27;54.02;100503.09;3574691;40;20629;-83
2021/08/06 08:35:52;;;;;;;2.83;2.63;;;;;;;23.56;53.06;100488.88;3574577;40;20226;-80
2021/08/06 08:38:17;;;;;;;3.00;2.80;;;;;;;23.68;51.74;100493.63;3575457;40;20226;-79
2021/08/06 08:40:43;;;;;;;3.47;3.10;;;;;;;23.67;52.37;100494.56;3575360;40;20552;-80
2021/08/06 08:43:08;;;;;;;2.90;2.60;;;;;;;23.93;52.36;100489.16;3574683;40;20238;-80
2021/08/06 08:45:39;;;;;;;2.70;2.50;;;;;;;24.04;51.21;100486.97;3575270;40;20231;-80
2021/08/06 08:48:07;;;;;;;2.60;2.40;;;;;;;24.07;50.93;100479.81;3583746;40;20238;-80
2021/08/06 08:50:33;;;;;;;3.37;2.60;;;;;;;24.25;50.31;100480.81;3575858;40;20239;-81
2021/08/06 08:52:58;;;;;;;2.72;2.53;;;;;;;24.39;49.28;100479.31;3576072;40;20223;-80
2021/08/06 08:55:23;;;;;;;2.83;2.50;;;;;;;24.35;48.83;100480.38;3576616;40;20629;-80
2021/08/06 08:57:48;;;;;;;2.42;2.22;;;;;;;24.48;49.12;100472.84;3576244;40;20230;-80
2021/08/06 09:00:15;;;;;;;2.67;2.47;;;;;;;24.61;48.52;100480.16;3582974;40;20257;-80
2021/08/06 09:02:41;;;;;;;2.65;2.45;;;;;;;24.57;49.77;100473.31;3564539;40;21060;-80
2021/08/06 09:05:14;;;;;;;4.75;2.63;;;;;;;24.49;49.73;100470.16;3574909;40;20235;-80
2021/08/06 09:07:40;;;;;;;2.75;2.17;;;;;;;24.77;49.01;100475.91;3575524;40;20270;-80
2021/08/06 09:10:18;;;;;;;2.75;2.53;;;;;;;24.88;48.62;100473.69;3575080;40;20249;-80
2021/08/06 09:12:57;;;;;;;2.78;2.58;;;;;;;24.96;48.83;100465.47;3577416;40;20220;-81
2021/08/06 09:15:44;;;;;;;2.92;2.55;;;;;;;25.11;47.58;100460.38;3575398;40;20604;-80
2021/08/06 09:18:25;;;;;;;2.45;2.25;;;;;;;24.93;49.27;100460.38;3575709;40;20597;-80
2021/08/06 09:20:52;;;;;;;2.50;2.30;;;;;;;25.06;48.51;100456.25;3576488;40;20253;-80
2021/08/06 09:23:53;;;;;;;3.53;2.70;;;;;;;24.98;49.20;100455.75;3575482;40;20251;-81
2021/08/06 09:26:33;;;;;;;5.63;2.70;;;;;;;25.08;49.10;100452.66;3575502;40;20236;-80
2021/08/06 09:29:01;;;;;;;2.63;2.42;;;;;;;25.28;49.25;100441.28;3570821;40;20246;-79
2021/08/06 09:31:28;;;;;;;3.17;2.80;;;;;;;25.30;46.17;100445.53;3567137;40;20622;-80
2021/08/06 09:34:07;;;;;;;2.38;2.22;;;;;;;25.51;46.14;100449.75;3562934;40;20247;-80
2021/08/06 09:36:32;;;;;;;3.10;2.80;;;;;;;25.56;45.59;100446.91;3563710;40;20571;-79
2021/08/06 09:39:11;;;;;;;3.03;2.35;;;;;;;25.61;47.03;100452.78;3568494;40;20308;-81
2021/08/06 09:41:38;;;;;;;3.17;2.65;;;;;;;25.66;47.11;100443.78;3573583;40;20266;-80
2021/08/06 09:44:13;;;;;;;3.25;2.70;;;;;;;25.80;46.95;100451.81;3573708;40;20234;-81
2021/08/06 09:46:38;;;;;;;2.83;2.63;;;;;;;25.79;46.65;100446.66;3572163;40;20703;-79
2021/08/06 09:49:05;;;;;;;3.08;2.78;;;;;;;25.91;45.41;100443.41;3562911;40;20247;-79
2021/08/06 09:51:31;;;;;;;3.08;2.60;;;;;;;25.94;46.05;100451.16;3563037;40;20753;-80
2021/08/06 09:53:57;;;;;;;3.45;3.15;;;;;;;25.97;46.41;100443.97;3563289;40;20239;-79
2021/08/06 09:56:22;;;;;;;3.05;2.67;;;;;;;26.01;43.97;100437.66;3568889;40;20215;-79
2021/08/06 09:58:58;;;;;;;2.90;2.70;;;;;;;25.98;46.03;100439.59;3573104;40;20227;-79
2021/08/06 10:01:23;;;;;;;3.17;2.88;;;;;;;25.88;45.23;100441.78;3566968;40;20238;-80
2021/08/06 10:03:49;;;;;;;3.40;3.10;;;;;;;25.91;45.21;100431.13;3574105;40;20637;-81
2021/08/06 10:06:16;;;;;;;3.25;3.05;;;;;;;25.92;45.81;100434.63;3573971;40;20270;-81
2021/08/06 10:08:42;;;;;;;3.20;3.00;;;;;;;25.89;46.17;100427.75;3574402;40;20254;-80
2021/08/06 10:11:09;;;;;;;3.50;3.30;;;;;;;25.96;44.78;100438.78;3573310;40;20230;-80
2021/08/06 10:13:36;;;;;;;3.30;3.00;;;;;;;26.09;44.46;100417.13;3573164;40;20214;-81
2021/08/06 10:16:01;;;;;;;3.38;2.75;;;;;;;26.07;46.79;100412.88;3573215;40;20239;-81
2021/08/06 10:18:27;;;;;;;3.40;3.10;;;;;;;26.14;45.87;100412.47;3573782;40;20279;-80
2021/08/06 10:20:52;;;;;;;3.00;2.80;;;;;;;26.26;46.28;100413.63;3572817;40;20237;-80
2021/08/06 10:23:17;;;;;;;3.83;3.53;;;;;;;26.60;44.15;100418.84;3573495;40;20612;-81
2021/08/06 10:25:43;;;;;;;3.40;3.20;;;;;;;26.52;44.61;100407.88;3581228;40;20246;-81
2021/08/06 10:28:08;;;;;;;3.28;3.08;;;;;;;26.52;44.81;100411.34;3580661;40;20249;-80
2021/08/06 10:30:36;;;;;;;4.63;3.20;;;;;;;26.69;43.82;100415.72;3573353;40;20241;-79
2021/08/06 10:33:11;;;;;;;3.40;3.20;;;;;;;26.63;44.52;100409.03;3572735;40;20230;-80
2021/08/06 10:35:56;;;;;;;3.47;3.17;;;;;;;26.70;44.74;100407.75;3573794;40;20646;-81
2021/08/06 10:38:42;;;;;;;2.88;2.67;;;;;;;26.74;44.79;100396.16;3574127;40;20226;-81
2021/08/06 10:41:20;;;;;;;3.00;2.80;;;;;;;27.03;43.29;100398.03;3572674;40;20327;-81
2021/08/06 10:43:47;;;;;;;3.67;3.22;;;;;;;27.18;43.26;100398.97;3581246;40;20239;-80
2021/08/06 10:46:14;;;;;;;4.30;2.65;;;;;;;27.03;43.48;100398.03;3573815;40;20226;-81
2021/08/06 10:48:42;;;;;;;3.85;3.00;;;;;;;27.08;43.07;100397.81;3572877;40;20230;-81
2021/08/06 10:51:16;;;;;;;3.03;2.80;;;;;;;27.21;43.87;100391.78;3572637;40;20234;-81
2021/08/06 10:53:55;;;;;;;3.20;3.00;;;;;;;27.43;43.43;100401.97;3572593;40;20242;-81
2021/08/06 10:56:24;;;;;;;3.30;3.00;;;;;;;27.53;41.70;100392.63;3571712;40;20247;-80
2021/08/06 10:58:50;;;;;;;4.38;3.03;;;;;;;27.25;42.32;100403.00;3573735;40;20361;-80
2021/08/06 11:01:27;;;;;;;4.05;3.15;;;;;;;27.25;42.18;100382.81;3561561;40;20800;-80
2021/08/06 11:04:11;;;;;;;3.92;3.60;;;;;;;27.13;42.33;100387.88;3570823;40;20561;-81
2021/08/06 11:06:37;;;;;;;4.20;3.63;;;;;;;26.98;42.52;100394.81;3580391;40;20234;-80
2021/08/06 11:09:09;;;;;;;3.92;3.50;;;;;;;26.91;43.52;100385.59;3573112;40;20331;-80
2021/08/06 11:12:02;;;;;;;4.68;3.80;;;;;;;26.87;43.32;100391.94;3573519;40;20640;-80
2021/08/06 11:14:28;;;;;;;4.20;3.90;;;;;;;26.80;43.01;100380.03;3574492;39;20226;-80
2021/08/06 11:17:08;;;;;;;4.32;4.03;;;;;;;26.83;44.30;100379.03;3572469;40;20234;-81
2021/08/06 11:19:42;;;;;;;3.97;3.67;;;;;;;26.76;44.29;100382.94;3572819;40;20548;-79
2021/08/06 11:22:09;;;;;;;4.20;3.80;;;;;;;26.84;44.56;100376.31;3570769;40;20775;-80
2021/08/06 11:24:42;;;;;;;3.80;3.50;;;;;;;26.82;44.35;100374.72;3563043;40;20223;-79